sensor_id;sensor_type;location;lat;lon;timestamp;pressure;altitude;pressure_sealevel;temperature;humidity
10470;BME280;5282;47.052;15.458;2023-04-06T00:00:51;97812.91;;;0.64;64.74
10470;BME280;5282;47.052;15.458;2023-04-06T00:03:18;97809.88;;;0.70;64.08
10470;BME280;5282;47.052;15.458;2023-04-06T00:05:46;97811.97;;;0.65;63.84
10470;BME280;5282;47.052;15.458;2023-04-06T00:08:14;97814.16;;;0.58;63.22
10470;BME280;5282;47.052;15.458;2023-04-06T00:10:41;97803.19;;;0.64;64.42
10470;BME280;5282;47.052;15.458;2023-04-06T00:13:08;97810.78;;;0.56;64.00
10470;BME280;5282;47.052;15.458;2023-04-06T00:15:37;97806.44;;;0.55;65.53
10470;BME280;5282;47.052;15.458;2023-04-06T00:18:05;97804.78;;;0.52;64.79
10470;BME280;5282;47.052;15.458;2023-04-06T00:20:32;97794.88;;;0.56;65.95
10470;BME280;5282;47.052;15.458;2023-04-06T00:22:59;97788.53;;;0.58;65.52
10470;BME280;5282;47.052;15.458;2023-04-06T00:25:26;97790.22;;;0.59;65.95
10470;BME280;5282;47.052;15.458;2023-04-06T00:27:53;97789.06;;;0.64;65.55
10470;BME280;5282;47.052;15.458;2023-04-06T00:30:20;97791.53;;;0.52;64.86
10470;BME280;5282;47.052;15.458;2023-04-06T00:32:50;97781.94;;;0.51;65.70
10470;BME280;5282;47.052;15.458;2023-04-06T00:35:19;97784.47;;;0.53;67.21
10470;BME280;5282;47.052;15.458;2023-04-06T00:37:49;97786.84;;;0.43;67.17
10470;BME280;5282;47.052;15.458;2023-04-06T00:40:16;97782.75;;;0.52;66.99
10470;BME280;5282;47.052;15.458;2023-04-06T00:42:43;97787.75;;;0.56;65.55
10470;BME280;5282;47.052;15.458;2023-04-06T00:45:10;97787.66;;;0.58;65.25
10470;BME280;5282;47.052;15.458;2023-04-06T00:47:37;97783.41;;;0.55;65.87
10470;BME280;5282;47.052;15.458;2023-04-06T00:50:05;97785.91;;;0.44;66.67
10470;BME280;5282;47.052;15.458;2023-04-06T00:52:34;97782.94;;;0.63;65.21
10470;BME280;5282;47.052;15.458;2023-04-06T00:55:01;97788.94;;;0.38;66.42
10470;BME280;5282;47.052;15.458;2023-04-06T00:57:28;97780.25;;;0.36;68.05
10470;BME280;5282;47.052;15.458;2023-04-06T00:59:55;97780.34;;;0.34;67.50
10470;BME280;5282;47.052;15.458;2023-04-06T01:02:24;97780.34;;;0.34;68.74
10470;BME280;5282;47.052;15.458;2023-04-06T01:04:52;97781.84;;;0.38;67.76
10470;BME280;5282;47.052;15.458;2023-04-06T01:07:19;97778.06;;;0.28;67.62
10470;BME280;5282;47.052;15.458;2023-04-06T01:09:47;97779.44;;;0.21;68.93
10470;BME280;5282;47.052;15.458;2023-04-06T01:12:14;97778.56;;;0.20;68.73
10470;BME280;5282;47.052;15.458;2023-04-06T01:14:41;97776.97;;;0.18;68.30
10470;BME280;5282;47.052;15.458;2023-04-06T01:17:08;97773.25;;;0.20;69.90
10470;BME280;5282;47.052;15.458;2023-04-06T01:19:36;97773.91;;;0.24;68.48
10470;BME280;5282;47.052;15.458;2023-04-06T01:22:03;97763.53;;;0.21;68.98
10470;BME280;5282;47.052;15.458;2023-04-06T01:24:31;97765.03;;;0.25;69.50
10470;BME280;5282;47.052;15.458;2023-04-06T01:26:58;97767.66;;;0.25;68.26
10470;BME280;5282;47.052;15.458;2023-04-06T01:29:26;97769.28;;;0.27;68.51
10470;BME280;5282;47.052;15.458;2023-04-06T01:31:53;97767.03;;;0.21;68.21
10470;BME280;5282;47.052;15.458;2023-04-06T01:34:21;97768.00;;;0.06;69.09
10470;BME280;5282;47.052;15.458;2023-04-06T01:36:48;97765.44;;;0.04;69.29
10470;BME280;5282;47.052;15.458;2023-04-06T01:39:14;97763.06;;;0.14;69.84
10470;BME280;5282;47.052;15.458;2023-04-06T01:41:43;97761.38;;;0.13;69.42
10470;BME280;5282;47.052;15.458;2023-04-06T01:44:10;97770.84;;;0.03;70.11
10470;BME280;5282;47.052;15.458;2023-04-06T01:46:37;97765.72;;;-0.01;70.86
10470;BME280;5282;47.052;15.458;2023-04-06T01:49:04;97769.88;;;-0.11;72.45
10470;BME280;5282;47.052;15.458;2023-04-06T01:51:33;97764.41;;;-0.08;71.81
10470;BME280;5282;47.052;15.458;2023-04-06T01:54:00;97768.94;;;-0.10;71.86
10470;BME280;5282;47.052;15.458;2023-04-06T01:56:28;97762.50;;;-0.06;71.32
10470;BME280;5282;47.052;15.458;2023-04-06T01:58:56;97771.97;;;-0.02;70.70
10470;BME280;5282;47.052;15.458;2023-04-06T02:01:25;97766.84;;;-0.05;71.27
10470;BME280;5282;47.052;15.458;2023-04-06T02:03:52;97767.78;;;-0.06;72.71
10470;BME280;5282;47.052;15.458;2023-04-06T02:06:22;97761.75;;;-0.08;71.62
10470;BME280;5282;47.052;15.458;2023-04-06T02:08:49;97764.00;;;-0.16;70.73
10470;BME280;5282;47.052;15.458;2023-04-06T02:11:16;97762.25;;;-0.16;71.71
10470;BME280;5282;47.052;15.458;2023-04-06T02:13:49;97757.59;;;-0.12;70.42
10470;BME280;5282;47.052;15.458;2023-04-06T02:16:17;97764.00;;;-0.16;71.25
10470;BME280;5282;47.052;15.458;2023-04-06T02:18:44;97752.22;;;-0.25;72.21
10470;BME280;5282;47.052;15.458;2023-04-06T02:21:11;97756.47;;;-0.22;72.78
10470;BME280;5282;47.052;15.458;2023-04-06T02:23:40;97755.72;;;-0.10;72.08
10470;BME280;5282;47.052;15.458;2023-04-06T02:26:07;97753.25;;;-0.42;72.79
10470;BME280;5282;47.052;15.458;2023-04-06T02:28:34;97758.66;;;-0.74;77.01
10470;BME280;5282;47.052;15.458;2023-04-06T02:31:01;97760.06;;;-0.52;76.28
10470;BME280;5282;47.052;15.458;2023-04-06T02:33:30;97759.09;;;-0.37;74.87
10470;BME280;5282;47.052;15.458;2023-04-06T02:35:57;97756.09;;;-0.45;75.32
10470;BME280;5282;47.052;15.458;2023-04-06T02:38:23;97756.16;;;-0.32;75.48
10470;BME280;5282;47.052;15.458;2023-04-06T02:40:50;97755.97;;;-0.43;76.59
10470;BME280;5282;47.052;15.458;2023-04-06T02:43:18;97757.88;;;-0.31;74.79
10470;BME280;5282;47.052;15.458;2023-04-06T02:45:45;97754.19;;;-0.43;75.29
10470;BME280;5282;47.052;15.458;2023-04-06T02:48:12;97746.25;;;-0.43;76.36
10470;BME280;5282;47.052;15.458;2023-04-06T02:50:40;97752.84;;;-0.50;75.76
10470;BME280;5282;47.052;15.458;2023-04-06T02:53:07;97743.22;;;-0.51;77.30
10470;BME280;5282;47.052;15.458;2023-04-06T02:55:34;97745.78;;;-0.50;77.66
10470;BME280;5282;47.052;15.458;2023-04-06T02:58:01;97747.94;;;-0.56;77.58
10470;BME280;5282;47.052;15.458;2023-04-06T03:00:27;97754.72;;;-0.67;77.28
10470;BME280;5282;47.052;15.458;2023-04-06T03:02:54;97745.09;;;-0.68;78.42
10470;BME280;5282;47.052;15.458;2023-04-06T03:05:21;97746.81;;;-0.67;79.11
10470;BME280;5282;47.052;15.458;2023-04-06T03:07:50;97748.50;;;-0.66;78.33
10470;BME280;5282;47.052;15.458;2023-04-06T03:10:17;97738.41;;;-0.59;78.42
10470;BME280;5282;47.052;15.458;2023-04-06T03:12:44;97743.38;;;-0.69;78.77
10470;BME280;5282;47.052;15.458;2023-04-06T03:15:11;97745.09;;;-0.68;79.55
10470;BME280;5282;47.052;15.458;2023-04-06T03:17:38;97749.06;;;-0.75;80.12
10470;BME280;5282;47.052;15.458;2023-04-06T03:20:06;97748.97;;;-0.73;78.95
10470;BME280;5282;47.052;15.458;2023-04-06T03:22:33;97749.22;;;-0.78;79.06
10470;BME280;5282;47.052;15.458;2023-04-06T03:25:01;97743.94;;;-0.78;78.66
10470;BME280;5282;47.052;15.458;2023-04-06T03:27:28;97744.88;;;-0.79;79.00
10470;BME280;5282;47.052;15.458;2023-04-06T03:29:55;97743.81;;;-0.91;80.89
10470;BME280;5282;47.052;15.458;2023-04-06T03:32:22;97753.16;;;-0.85;82.40
10470;BME280;5282;47.052;15.458;2023-04-06T03:34:49;97751.56;;;-0.88;82.71
10470;BME280;5282;47.052;15.458;2023-04-06T03:37:18;97746.66;;;-0.94;83.66
10470;BME280;5282;47.052;15.458;2023-04-06T03:39:45;97746.94;;;-0.84;82.66
10470;BME280;5282;47.052;15.458;2023-04-06T03:42:13;97754.88;;;-0.84;80.93
10470;BME280;5282;47.052;15.458;2023-04-06T03:44:40;97749.78;;;-0.87;81.92
10470;BME280;5282;47.052;15.458;2023-04-06T03:47:07;97753.88;;;-0.98;82.23
10470;BME280;5282;47.052;15.458;2023-04-06T03:49:34;97752.78;;;-0.94;82.56
10470;BME280;5282;47.052;15.458;2023-04-06T03:52:03;97756.19;;;-0.91;82.29
10470;BME280;5282;47.052;15.458;2023-04-06T03:54:30;97761.81;;;-0.98;82.35
10470;BME280;5282;47.052;15.458;2023-04-06T03:56:57;97759.28;;;-0.99;82.98
10470;BME280;5282;47.052;15.458;2023-04-06T03:59:27;97757.97;;;-0.92;81.86
10470;BME280;5282;47.052;15.458;2023-04-06T04:01:53;97760.66;;;-1.08;82.66
10470;BME280;5282;47.052;15.458;2023-04-06T04:04:20;97759.91;;;-1.26;85.38
10470;BME280;5282;47.052;15.458;2023-04-06T04:06:48;97758.72;;;-1.04;84.61
10470;BME280;5282;47.052;15.458;2023-04-06T04:09:14;97766.66;;;-1.20;86.38
10470;BME280;5282;47.052;15.458;2023-04-06T04:11:41;97765.72;;;-1.19;84.93
10470;BME280;5282;47.052;15.458;2023-04-06T04:14:08;97769.13;;;-1.17;86.43
10470;BME280;5282;47.052;15.458;2023-04-06T04:16:36;97764.00;;;-1.20;88.11
10470;BME280;5282;47.052;15.458;2023-04-06T04:19:05;97773.38;;;-1.15;87.62
10470;BME280;5282;47.052;15.458;2023-04-06T04:21:32;97768.19;;;-1.16;87.30
10470;BME280;5282;47.052;15.458;2023-04-06T04:23:59;97771.59;;;-1.14;87.32
10470;BME280;5282;47.052;15.458;2023-04-06T04:26:26;97776.66;;;-1.26;88.46
10470;BME280;5282;47.052;15.458;2023-04-06T04:28:53;97778.00;;;-1.34;89.33
10470;BME280;5282;47.052;15.458;2023-04-06T04:31:22;97778.28;;;-1.39;92.73
10470;BME280;5282;47.052;15.458;2023-04-06T04:33:50;97782.38;;;-1.49;92.77
10470;BME280;5282;47.052;15.458;2023-04-06T04:36:17;97787.91;;;-1.38;91.62
10470;BME280;5282;47.052;15.458;2023-04-06T04:38:44;97786.38;;;-1.42;91.78
10470;BME280;5282;47.052;15.458;2023-04-06T04:41:11;97784.75;;;-1.45;92.78
10470;BME280;5282;47.052;15.458;2023-04-06T04:43:38;97785.38;;;-1.56;95.46
10470;BME280;5282;47.052;15.458;2023-04-06T04:46:05;97790.13;;;-1.46;94.37
10470;BME280;5282;47.052;15.458;2023-04-06T04:48:32;97783.03;;;-1.30;93.63
10470;BME280;5282;47.052;15.458;2023-04-06T04:51:00;97783.28;;;-1.34;95.09
10470;BME280;5282;47.052;15.458;2023-04-06T04:53:29;97782.47;;;-1.35;94.12
10470;BME280;5282;47.052;15.458;2023-04-06T04:55:56;97783.97;;;-1.31;93.82
10470;BME280;5282;47.052;15.458;2023-04-06T04:58:22;97792.31;;;-1.22;93.95
10470;BME280;5282;47.052;15.458;2023-04-06T05:00:49;97779.84;;;-1.20;92.24
10470;BME280;5282;47.052;15.458;2023-04-06T05:03:19;97784.97;;;-1.17;92.35
10470;BME280;5282;47.052;15.458;2023-04-06T05:05:47;97784.97;;;-1.17;92.15
10470;BME280;5282;47.052;15.458;2023-04-06T05:08:16;97785.75;;;-1.15;93.06
10470;BME280;5282;47.052;15.458;2023-04-06T05:10:45;97785.31;;;-1.07;91.36
10470;BME280;5282;47.052;15.458;2023-04-06T05:13:13;97782.56;;;-1.06;90.73
10470;BME280;5282;47.052;15.458;2023-04-06T05:15:40;97774.28;;;-1.00;89.80
10470;BME280;5282;47.052;15.458;2023-04-06T05:18:07;97773.16;;;-0.96;89.98
10470;BME280;5282;47.052;15.458;2023-04-06T05:20:35;97778.28;;;-0.93;88.73
10470;BME280;5282;47.052;15.458;2023-04-06T05:23:02;97775.28;;;-0.86;87.50
10470;BME280;5282;47.052;15.458;2023-04-06T05:25:30;97781.28;;;-0.99;88.54
10470;BME280;5282;47.052;15.458;2023-04-06T05:27:58;97777.97;;;-1.18;92.03
10470;BME280;5282;47.052;15.458;2023-04-06T05:30:25;97775.53;;;-0.91;91.12
10470;BME280;5282;47.052;15.458;2023-04-06T05:32:52;97771.88;;;-0.74;88.66
10470;BME280;5282;47.052;15.458;2023-04-06T05:35:19;97779.59;;;-1.00;91.44
10470;BME280;5282;47.052;15.458;2023-04-06T05:37:46;97781.25;;;-0.83;89.44
10470;BME280;5282;47.052;15.458;2023-04-06T05:40:13;97773.63;;;-0.58;86.80
10470;BME280;5282;47.052;15.458;2023-04-06T05:42:41;97769.84;;;-0.69;86.46
10470;BME280;5282;47.052;15.458;2023-04-06T05:45:10;97769.28;;;-0.59;84.33
10470;BME280;5282;47.052;15.458;2023-04-06T05:47:42;97768.91;;;-0.39;82.52
10470;BME280;5282;47.052;15.458;2023-04-06T05:50:09;97764.75;;;-0.28;80.66
10470;BME280;5282;47.052;15.458;2023-04-06T05:52:36;97773.94;;;-0.20;80.16
10470;BME280;5282;47.052;15.458;2023-04-06T05:55:04;97768.38;;;-0.15;81.78
10470;BME280;5282;47.052;15.458;2023-04-06T05:57:31;97772.16;;;-0.05;80.03
10470;BME280;5282;47.052;15.458;2023-04-06T05:59:59;97782.56;;;-0.02;77.44
10470;BME280;5282;47.052;15.458;2023-04-06T06:02:26;97767.78;;;0.09;76.83
10470;BME280;5282;47.052;15.458;2023-04-06T06:04:55;97769.00;;;0.18;75.97
10470;BME280;5282;47.052;15.458;2023-04-06T06:07:22;97765.78;;;0.27;75.83
10470;BME280;5282;47.052;15.458;2023-04-06T06:09:49;97768.69;;;0.37;75.25
10470;BME280;5282;47.052;15.458;2023-04-06T06:12:16;97764.81;;;0.42;73.42
10470;BME280;5282;47.052;15.458;2023-04-06T06:14:43;97768.53;;;0.40;72.71
10470;BME280;5282;47.052;15.458;2023-04-06T06:17:12;97766.75;;;0.53;73.63
10470;BME280;5282;47.052;15.458;2023-04-06T06:19:41;97765.66;;;0.70;71.95
10470;BME280;5282;47.052;15.458;2023-04-06T06:22:07;97763.69;;;0.74;72.31
10470;BME280;5282;47.052;15.458;2023-04-06T06:24:35;97761.47;;;0.81;71.03
10470;BME280;5282;47.052;15.458;2023-04-06T06:27:02;97758.31;;;0.88;70.63
10470;BME280;5282;47.052;15.458;2023-04-06T06:29:29;97757.91;;;0.95;69.86
10470;BME280;5282;47.052;15.458;2023-04-06T06:31:56;97759.31;;;1.00;70.13
10470;BME280;5282;47.052;15.458;2023-04-06T06:34:24;97755.41;;;1.06;68.06
10470;BME280;5282;47.052;15.458;2023-04-06T06:36:51;97752.13;;;1.15;66.83
10470;BME280;5282;47.052;15.458;2023-04-06T06:39:20;97756.91;;;1.23;65.30
10470;BME280;5282;47.052;15.458;2023-04-06T06:41:47;97760.00;;;1.30;64.84
10470;BME280;5282;47.052;15.458;2023-04-06T06:44:14;97758.63;;;1.37;63.59
10470;BME280;5282;47.052;15.458;2023-04-06T06:46:42;97756.81;;;1.25;62.93
10470;BME280;5282;47.052;15.458;2023-04-06T06:49:09;97750.41;;;1.14;62.81
10470;BME280;5282;47.052;15.458;2023-04-06T06:51:39;97746.75;;;1.43;62.26
10470;BME280;5282;47.052;15.458;2023-04-06T06:54:06;97756.84;;;1.63;61.25
10470;BME280;5282;47.052;15.458;2023-04-06T06:56:32;97748.88;;;1.76;60.81
10470;BME280;5282;47.052;15.458;2023-04-06T06:59:01;97748.66;;;1.79;60.91
10470;BME280;5282;47.052;15.458;2023-04-06T07:01:28;97743.22;;;1.94;59.56
10470;BME280;5282;47.052;15.458;2023-04-06T07:03:55;97744.41;;;2.03;59.27
10470;BME280;5282;47.052;15.458;2023-04-06T07:06:22;97746.75;;;1.94;61.20
10470;BME280;5282;47.052;15.458;2023-04-06T07:08:50;97746.44;;;1.99;59.94
10470;BME280;5282;47.052;15.458;2023-04-06T07:11:17;97749.59;;;2.17;60.27
10470;BME280;5282;47.052;15.458;2023-04-06T07:13:44;97746.66;;;2.33;59.58
10470;BME280;5282;47.052;15.458;2023-04-06T07:16:11;97749.41;;;2.44;58.65
10470;BME280;5282;47.052;15.458;2023-04-06T07:18:38;97740.63;;;2.55;58.24
10470;BME280;5282;47.052;15.458;2023-04-06T07:21:05;97748.78;;;2.65;56.85
10470;BME280;5282;47.052;15.458;2023-04-06T07:23:35;97751.72;;;2.73;56.10
10470;BME280;5282;47.052;15.458;2023-04-06T07:26:03;97739.44;;;2.84;55.48
10470;BME280;5282;47.052;15.458;2023-04-06T07:28:30;97746.13;;;2.89;54.31
10470;BME280;5282;47.052;15.458;2023-04-06T07:30:57;97739.88;;;3.02;53.62
10470;BME280;5282;47.052;15.458;2023-04-06T07:33:26;97745.59;;;3.08;54.11
10470;BME280;5282;47.052;15.458;2023-04-06T07:35:55;97742.25;;;3.18;53.88
10470;BME280;5282;47.052;15.458;2023-04-06T07:38:22;97741.22;;;3.32;53.58
10470;BME280;5282;47.052;15.458;2023-04-06T07:40:49;97740.38;;;3.43;52.77
10470;BME280;5282;47.052;15.458;2023-04-06T07:43:17;97738.59;;;3.54;52.41
10470;BME280;5282;47.052;15.458;2023-04-06T07:45:44;97740.44;;;3.77;50.38
10470;BME280;5282;47.052;15.458;2023-04-06T07:48:11;97734.63;;;3.83;50.04
10470;BME280;5282;47.052;15.458;2023-04-06T07:50:38;97735.97;;;3.89;51.22
10470;BME280;5282;47.052;15.458;2023-04-06T07:53:05;97728.72;;;4.02;50.18
10470;BME280;5282;47.052;15.458;2023-04-06T07:55:32;97725.69;;;4.18;50.02
10470;BME280;5282;47.052;15.458;2023-04-06T07:58:01;97715.34;;;4.36;49.34
10470;BME280;5282;47.052;15.458;2023-04-06T08:00:30;97709.84;;;4.49;49.07
10470;BME280;5282;47.052;15.458;2023-04-06T08:02:57;97709.47;;;4.54;47.48
10470;BME280;5282;47.052;15.458;2023-04-06T08:05:26;97711.31;;;4.53;47.29
10470;BME280;5282;47.052;15.458;2023-04-06T08:07:53;97711.34;;;4.74;47.24
10470;BME280;5282;47.052;15.458;2023-04-06T08:10:20;97705.88;;;4.87;46.94
10470;BME280;5282;47.052;15.458;2023-04-06T08:12:47;97704.50;;;4.60;45.88
10470;BME280;5282;47.052;15.458;2023-04-06T08:15:14;97697.97;;;4.86;45.19
10470;BME280;5282;47.052;15.458;2023-04-06T08:17:42;97691.63;;;4.98;44.40
10470;BME280;5282;47.052;15.458;2023-04-06T08:20:10;97691.91;;;5.16;43.27
10470;BME280;5282;47.052;15.458;2023-04-06T08:22:37;97685.03;;;5.23;44.03
10470;BME280;5282;47.052;15.458;2023-04-06T08:25:04;97686.25;;;5.31;43.71
10470;BME280;5282;47.052;15.458;2023-04-06T08:27:31;97683.44;;;5.32;42.54
10470;BME280;5282;47.052;15.458;2023-04-06T08:29:58;97681.22;;;5.16;41.90
10470;BME280;5282;47.052;15.458;2023-04-06T08:32:25;97673.22;;;5.16;42.54
10470;BME280;5282;47.052;15.458;2023-04-06T08:34:54;97673.53;;;5.23;42.06
10470;BME280;5282;47.052;15.458;2023-04-06T08:37:21;97671.06;;;5.31;41.49
10470;BME280;5282;47.052;15.458;2023-04-06T08:39:48;97663.44;;;5.79;40.88
10470;BME280;5282;47.052;15.458;2023-04-06T08:42:19;97660.75;;;6.00;39.30
10470;BME280;5282;47.052;15.458;2023-04-06T08:44:48;97651.78;;;6.21;39.26
10470;BME280;5282;47.052;15.458;2023-04-06T08:47:16;97657.91;;;6.01;39.18
10470;BME280;5282;47.052;15.458;2023-04-06T08:49:44;97650.69;;;5.92;37.88
10470;BME280;5282;47.052;15.458;2023-04-06T08:52:14;97653.22;;;5.94;37.85
10470;BME280;5282;47.052;15.458;2023-04-06T08:54:44;97639.72;;;6.36;37.63
10470;BME280;5282;47.052;15.458;2023-04-06T08:57:11;97639.19;;;6.82;39.12
10470;BME280;5282;47.052;15.458;2023-04-06T08:59:39;97632.84;;;7.02;38.14
10470;BME280;5282;47.052;15.458;2023-04-06T09:02:14;97633.19;;;7.37;38.19
10470;BME280;5282;47.052;15.458;2023-04-06T09:04:43;97622.34;;;7.76;36.75
10470;BME280;5282;47.052;15.458;2023-04-06T09:07:13;97623.97;;;8.15;36.21
10470;BME280;5282;47.052;15.458;2023-04-06T09:09:40;97617.00;;;8.50;34.82
10470;BME280;5282;47.052;15.458;2023-04-06T09:12:22;97614.09;;;8.61;32.78
10470;BME280;5282;47.052;15.458;2023-04-06T09:14:52;97616.06;;;7.95;32.80
10470;BME280;5282;47.052;15.458;2023-04-06T09:17:20;97616.94;;;8.14;32.27
10470;BME280;5282;47.052;15.458;2023-04-06T09:19:48;97596.06;;;8.54;34.38
10470;BME280;5282;47.052;15.458;2023-04-06T09:22:16;97598.03;;;9.06;34.01
10470;BME280;5282;47.052;15.458;2023-04-06T09:24:45;97590.66;;;9.34;31.98
10470;BME280;5282;47.052;15.458;2023-04-06T09:27:13;97592.09;;;9.81;31.66
10470;BME280;5282;47.052;15.458;2023-04-06T09:29:40;97583.97;;;9.73;30.63
10470;BME280;5282;47.052;15.458;2023-04-06T09:32:08;97595.09;;;8.09;31.19
10470;BME280;5282;47.052;15.458;2023-04-06T09:34:37;97591.59;;;8.26;31.52
10470;BME280;5282;47.052;15.458;2023-04-06T09:37:12;97587.22;;;8.43;30.94
10470;BME280;5282;47.052;15.458;2023-04-06T09:39:41;97580.28;;;7.77;31.44
10470;BME280;5282;47.052;15.458;2023-04-06T09:42:08;97583.47;;;8.18;32.15
10470;BME280;5282;47.052;15.458;2023-04-06T09:44:35;97576.22;;;9.09;33.41
10470;BME280;5282;47.052;15.458;2023-04-06T09:47:06;97574.38;;;9.62;31.48
10470;BME280;5282;47.052;15.458;2023-04-06T09:49:33;97570.81;;;9.96;31.52
10470;BME280;5282;47.052;15.458;2023-04-06T09:52:03;97568.13;;;10.04;30.53
10470;BME280;5282;47.052;15.458;2023-04-06T09:54:31;97564.59;;;10.55;31.64
10470;BME280;5282;47.052;15.458;2023-04-06T09:57:03;97565.34;;;10.31;29.27
10470;BME280;5282;47.052;15.458;2023-04-06T09:59:40;97555.88;;;10.02;28.53
10470;BME280;5282;47.052;15.458;2023-04-06T10:05:02;97568.97;;;9.54;28.97
10470;BME280;5282;47.052;15.458;2023-04-06T10:07:32;97552.50;;;8.24;29.50
10470;BME280;5282;47.052;15.458;2023-04-06T10:10:00;97550.75;;;8.69;30.04
10470;BME280;5282;47.052;15.458;2023-04-06T10:12:30;97547.81;;;9.24;29.71
10470;BME280;5282;47.052;15.458;2023-04-06T10:15:00;97538.72;;;9.95;29.92
10470;BME280;5282;47.052;15.458;2023-04-06T10:17:27;97539.38;;;8.93;29.25
10470;BME280;5282;47.052;15.458;2023-04-06T10:19:59;97541.88;;;8.94;29.33
10470;BME280;5282;47.052;15.458;2023-04-06T10:22:32;97533.44;;;9.07;28.94
10470;BME280;5282;47.052;15.458;2023-04-06T10:25:01;97527.38;;;9.75;28.86
10470;BME280;5282;47.052;15.458;2023-04-06T10:27:30;97535.69;;;9.55;28.15
10470;BME280;5282;47.052;15.458;2023-04-06T10:30:02;97527.47;;;9.56;29.35
10470;BME280;5282;47.052;15.458;2023-04-06T10:32:33;97526.84;;;10.30;30.32
10470;BME280;5282;47.052;15.458;2023-04-06T10:35:08;97516.78;;;10.99;29.43
10470;BME280;5282;47.052;15.458;2023-04-06T10:37:50;97508.31;;;11.26;28.83
10470;BME280;5282;47.052;15.458;2023-04-06T10:40:19;97509.16;;;11.67;29.56
10470;BME280;5282;47.052;15.458;2023-04-06T10:42:48;97505.22;;;11.86;27.50
10470;BME280;5282;47.052;15.458;2023-04-06T10:45:22;97517.75;;;11.06;28.13
10470;BME280;5282;47.052;15.458;2023-04-06T10:47:52;97502.16;;;11.49;27.57
10470;BME280;5282;47.052;15.458;2023-04-06T10:50:19;97495.31;;;12.33;26.96
10470;BME280;5282;47.052;15.458;2023-04-06T10:52:47;97503.75;;;12.38;25.53
10470;BME280;5282;47.052;15.458;2023-04-06T10:55:14;97489.38;;;12.99;26.78
10470;BME280;5282;47.052;15.458;2023-04-06T10:57:42;97483.84;;;13.61;25.66
10470;BME280;5282;47.052;15.458;2023-04-06T11:00:12;97501.28;;;10.84;25.25
10470;BME280;5282;47.052;15.458;2023-04-06T11:02:39;97497.72;;;11.65;25.43
10470;BME280;5282;47.052;15.458;2023-04-06T11:05:07;97495.59;;;11.52;25.88
10470;BME280;5282;47.052;15.458;2023-04-06T11:07:34;97488.44;;;11.67;25.11
10470;BME280;5282;47.052;15.458;2023-04-06T11:10:04;97478.53;;;12.46;27.29
10470;BME280;5282;47.052;15.458;2023-04-06T11:12:31;97472.78;;;13.02;25.15
10470;BME280;5282;47.052;15.458;2023-04-06T11:15:02;97463.84;;;13.77;25.82
10470;BME280;5282;47.052;15.458;2023-04-06T11:17:32;97469.28;;;13.62;24.58
10470;BME280;5282;47.052;15.458;2023-04-06T11:20:03;97470.88;;;13.41;23.36
10470;BME280;5282;47.052;15.458;2023-04-06T11:22:31;97462.84;;;13.99;23.66
10470;BME280;5282;47.052;15.458;2023-04-06T11:25:04;97449.19;;;14.08;23.14
10470;BME280;5282;47.052;15.458;2023-04-06T11:27:32;97459.16;;;12.80;23.02
10470;BME280;5282;47.052;15.458;2023-04-06T11:29:59;97474.22;;;10.53;24.58
10470;BME280;5282;47.052;15.458;2023-04-06T11:32:26;97462.34;;;11.11;25.26
10470;BME280;5282;47.052;15.458;2023-04-06T11:34:54;97455.81;;;10.98;24.57
10470;BME280;5282;47.052;15.458;2023-04-06T11:37:21;97449.13;;;11.33;25.46
10470;BME280;5282;47.052;15.458;2023-04-06T11:39:49;97447.22;;;11.82;24.04
10470;BME280;5282;47.052;15.458;2023-04-06T11:42:24;97439.19;;;12.28;23.26
10470;BME280;5282;47.052;15.458;2023-04-06T11:44:53;97437.22;;;12.22;23.38
10470;BME280;5282;47.052;15.458;2023-04-06T11:47:27;97429.06;;;12.69;24.73
10470;BME280;5282;47.052;15.458;2023-04-06T11:49:55;97441.94;;;13.56;24.00
10470;BME280;5282;47.052;15.458;2023-04-06T11:52:27;97426.81;;;13.99;23.81
10470;BME280;5282;47.052;15.458;2023-04-06T11:54:55;97433.16;;;14.06;21.97
10470;BME280;5282;47.052;15.458;2023-04-06T11:57:22;97424.81;;;14.29;22.69
10470;BME280;5282;47.052;15.458;2023-04-06T11:59:50;97429.41;;;14.50;23.15
10470;BME280;5282;47.052;15.458;2023-04-06T12:02:19;97418.44;;;14.87;22.19
10470;BME280;5282;47.052;15.458;2023-04-06T12:04:46;97422.34;;;14.78;20.97
10470;BME280;5282;47.052;15.458;2023-04-06T12:07:15;97419.78;;;14.04;20.85
10470;BME280;5282;47.052;15.458;2023-04-06T12:09:46;97413.03;;;14.37;22.16
10470;BME280;5282;47.052;15.458;2023-04-06T12:12:12;97413.69;;;14.39;21.93
10470;BME280;5282;47.052;15.458;2023-04-06T12:14:42;97403.63;;;14.11;21.35
10470;BME280;5282;47.052;15.458;2023-04-06T12:17:12;97404.22;;;14.57;23.39
10470;BME280;5282;47.052;15.458;2023-04-06T12:19:39;97401.00;;;14.96;20.81
10470;BME280;5282;47.052;15.458;2023-04-06T12:22:06;97400.19;;;15.86;21.91
10470;BME280;5282;47.052;15.458;2023-04-06T12:24:34;97398.97;;;16.02;21.25
10470;BME280;5282;47.052;15.458;2023-04-06T12:27:01;97403.31;;;15.90;21.09
10470;BME280;5282;47.052;15.458;2023-04-06T12:29:28;97390.84;;;16.36;21.70
10470;BME280;5282;47.052;15.458;2023-04-06T12:31:55;97394.06;;;15.78;20.18
10470;BME280;5282;47.052;15.458;2023-04-06T12:34:22;97398.13;;;15.40;20.52
10470;BME280;5282;47.052;15.458;2023-04-06T12:36:49;97399.81;;;15.54;19.66
10470;BME280;5282;47.052;15.458;2023-04-06T12:39:16;97390.28;;;13.36;20.78
10470;BME280;5282;47.052;15.458;2023-04-06T12:41:44;97383.91;;;14.17;21.67
10470;BME280;5282;47.052;15.458;2023-04-06T12:44:11;97372.28;;;15.09;21.82
10470;BME280;5282;47.052;15.458;2023-04-06T12:46:38;97384.06;;;12.76;21.15
10470;BME280;5282;47.052;15.458;2023-04-06T12:49:05;97378.91;;;12.51;21.62
10470;BME280;5282;47.052;15.458;2023-04-06T12:51:32;97379.50;;;13.51;21.34
10470;BME280;5282;47.052;15.458;2023-04-06T12:53:59;97364.94;;;14.39;21.80
10470;BME280;5282;47.052;15.458;2023-04-06T12:56:27;97369.13;;;14.70;21.53
10470;BME280;5282;47.052;15.458;2023-04-06T12:58:55;97369.38;;;13.60;20.69
10470;BME280;5282;47.052;15.458;2023-04-06T13:01:24;97369.97;;;13.77;22.05
10470;BME280;5282;47.052;15.458;2023-04-06T13:03:53;97366.44;;;13.98;21.66
10470;BME280;5282;47.052;15.458;2023-04-06T13:06:22;97370.72;;;14.36;20.83
10470;BME280;5282;47.052;15.458;2023-04-06T13:08:53;97363.84;;;12.72;20.77
10470;BME280;5282;47.052;15.458;2023-04-06T13:11:20;97365.25;;;12.53;21.27